createdAt,value
2023-03-15T00:01:28.792Z,9.20
2023-03-15T00:04:01.310Z,9.19
2023-03-15T00:06:36.234Z,9.31
2023-03-15T00:09:10.872Z,9.21
2023-03-15T00:11:43.966Z,9.07
2023-03-15T00:14:25.149Z,9.20
2023-03-15T00:17:07.313Z,9.34
2023-03-15T00:19:43.828Z,9.17
2023-03-15T00:22:17.947Z,9.30
2023-03-15T00:24:48.813Z,9.28
2023-03-15T00:27:26.387Z,9.15
2023-03-15T00:30:08.629Z,9.29
2023-03-15T00:32:39.730Z,9.25
2023-03-15T00:35:13.336Z,9.34
2023-03-15T00:37:42.857Z,9.36
2023-03-15T00:40:20.726Z,9.45
2023-03-15T00:42:50.297Z,9.43
2023-03-15T00:45:34.090Z,9.52
2023-03-15T00:48:02.769Z,9.57
2023-03-15T00:50:30.795Z,9.46
2023-03-15T00:52:59.428Z,9.25
2023-03-15T00:55:34.292Z,9.48
2023-03-15T00:58:05.730Z,9.29
2023-03-15T01:00:38.291Z,9.44
2023-03-15T01:03:18.236Z,9.43
2023-03-15T01:05:46.442Z,9.37
2023-03-15T01:08:20.649Z,9.55
2023-03-15T01:10:49.405Z,9.50
2023-03-15T01:13:21.576Z,9.39
2023-03-15T01:16:00.169Z,9.34
2023-03-15T01:18:34.783Z,9.29
2023-03-15T01:21:08.296Z,9.44
2023-03-15T01:23:41.051Z,9.34
2023-03-15T01:26:21.431Z,9.18
2023-03-15T01:28:52.467Z,8.73
2023-03-15T01:31:28.264Z,8.49
2023-03-15T01:34:05.748Z,8.34
2023-03-15T01:36:35.666Z,8.26
2023-03-15T01:39:05.233Z,8.23
2023-03-15T01:41:50.161Z,8.20
2023-03-15T01:44:21.190Z,8.09
2023-03-15T01:46:55.430Z,8.06
2023-03-15T01:49:33.373Z,7.88
2023-03-15T01:52:06.603Z,7.82
2023-03-15T01:54:59.123Z,7.75
2023-03-15T01:57:30.803Z,7.62
2023-03-15T02:00:19.090Z,7.68
2023-03-15T02:03:17.703Z,7.45
2023-03-15T02:05:55.169Z,7.54
2023-03-15T02:08:45.153Z,7.42
2023-03-15T02:11:15.103Z,7.52
2023-03-15T02:13:55.001Z,7.52
2023-03-15T02:16:30.475Z,7.49
2023-03-15T02:19:15.546Z,7.39
2023-03-15T02:21:53.997Z,7.39
2023-03-15T02:24:33.159Z,7.19
2023-03-15T02:27:05.096Z,7.39
2023-03-15T02:29:36.976Z,7.36
2023-03-15T02:32:17.092Z,7.43
2023-03-15T02:34:45.507Z,7.60
2023-03-15T02:37:19.489Z,7.48
2023-03-15T02:39:49.114Z,7.36
2023-03-15T02:42:21.399Z,7.42
2023-03-15T02:44:58.826Z,7.35
2023-03-15T02:47:36.240Z,7.37
2023-03-15T02:50:10.600Z,7.55
2023-03-15T02:52:39.806Z,7.41
2023-03-15T02:55:14.742Z,7.30
2023-03-15T02:57:43.567Z,7.23
2023-03-15T03:00:19.921Z,7.41
2023-03-15T03:02:49.448Z,7.20
2023-03-15T03:05:21.259Z,7.30
2023-03-15T03:07:51.020Z,7.38
2023-03-15T03:10:28.407Z,7.39
2023-03-15T03:13:02.000Z,7.11
2023-03-15T03:15:43.995Z,7.06
2023-03-15T03:18:37.073Z,7.21
2023-03-15T03:21:18.890Z,6.80
2023-03-15T03:23:50.322Z,6.74
2023-03-15T03:26:21.929Z,6.66
2023-03-15T03:29:05.671Z,6.79
2023-03-15T03:31:43.618Z,6.54
2023-03-15T03:34:16.690Z,6.82
2023-03-15T03:36:48.738Z,6.83
2023-03-15T03:39:34.946Z,6.89
2023-03-15T03:42:06.373Z,6.67
2023-03-15T03:44:34.616Z,6.58
2023-03-15T03:47:08.976Z,6.56
2023-03-15T03:49:38.208Z,6.47
2023-03-15T03:52:15.935Z,6.68
2023-03-15T03:54:47.843Z,6.82
2023-03-15T03:57:24.906Z,6.67
2023-03-15T03:59:55.892Z,6.51
2023-03-15T04:02:31.913Z,6.55
2023-03-15T04:05:14.462Z,6.62
2023-03-15T04:07:46.217Z,6.76
2023-03-15T04:10:22.709Z,6.69
2023-03-15T04:12:54.458Z,6.51
2023-03-15T04:15:24.008Z,6.46
2023-03-15T04:17:59.940Z,6.60
2023-03-15T04:20:36.172Z,6.35
2023-03-15T04:23:08.766Z,6.39
2023-03-15T04:25:59.215Z,6.42
2023-03-15T04:28:59.905Z,6.26
2023-03-15T04:32:02.808Z,6.16
2023-03-15T04:34:51.377Z,6.30
2023-03-15T04:37:42.565Z,6.51
2023-03-15T04:40:35.225Z,6.40
2023-03-15T04:43:36.830Z,6.35
2023-03-15T04:46:47.273Z,6.18
2023-03-15T04:49:53.174Z,6.43
2023-03-15T04:52:33.404Z,6.49
2023-03-15T04:55:29.594Z,6.28
2023-03-15T04:58:24.585Z,6.19
2023-03-15T05:01:30.890Z,6.29
2023-03-15T05:04:22.557Z,6.43
2023-03-15T05:07:27.814Z,6.51
2023-03-15T05:10:29.838Z,6.36
2023-03-15T05:13:20.888Z,6.23
2023-03-15T05:16:24.293Z,6.21
2023-03-15T05:19:35.615Z,6.16
2023-03-15T05:22:28.504Z,6.14
2023-03-15T05:25:16.938Z,5.93
2023-03-15T05:28:13.637Z,6.05
2023-03-15T05:31:02.957Z,6.17
2023-03-15T05:33:35.414Z,6.07
2023-03-15T05:36:34.316Z,6.17
2023-03-15T05:39:24.763Z,6.04
2023-03-15T05:42:15.580Z,6.32
2023-03-15T05:45:04.732Z,6.12
2023-03-15T05:48:08.252Z,6.04
2023-03-15T05:51:05.157Z,6.22
2023-03-15T05:53:54.469Z,6.17
2023-03-15T05:56:51.672Z,6.21
2023-03-15T05:59:48.352Z,6.44
2023-03-15T06:02:52.161Z,6.26
2023-03-15T06:05:41.744Z,6.24
2023-03-15T06:08:20.159Z,6.11
2023-03-15T06:10:51.948Z,6.37
2023-03-15T06:13:35.472Z,6.28
2023-03-15T06:16:10.121Z,6.07
2023-03-15T06:18:57.640Z,6.15
2023-03-15T06:21:28.816Z,6.18
2023-03-15T06:23:59.359Z,6.49
2023-03-15T06:26:27.870Z,6.30
2023-03-15T06:29:19.304Z,6.17
2023-03-15T06:31:50.855Z,6.42
2023-03-15T06:34:21.365Z,6.28
2023-03-15T06:37:04.984Z,6.43
2023-03-15T06:39:38.320Z,6.25
2023-03-15T06:42:11.960Z,6.28
2023-03-15T06:44:51.320Z,6.53
2023-03-15T06:47:21.932Z,6.50
2023-03-15T06:49:56.989Z,6.64
2023-03-15T06:52:28.515Z,6.67
2023-03-15T06:54:58.282Z,6.66
2023-03-15T06:57:27.531Z,6.71
2023-03-15T07:00:11.412Z,6.57
2023-03-15T07:02:42.878Z,6.61
2023-03-15T07:05:12.463Z,6.59
2023-03-15T07:07:42.029Z,6.56
2023-03-15T07:10:15.801Z,6.47
2023-03-15T07:12:47.486Z,6.34
2023-03-15T07:15:29.209Z,6.46
2023-03-15T07:18:02.812Z,6.71
2023-03-15T07:20:35.088Z,6.55
2023-03-15T07:23:10.117Z,6.39
2023-03-15T07:25:54.704Z,6.51
2023-03-15T07:28:27.477Z,6.44
2023-03-15T07:31:04.194Z,6.43
2023-03-15T07:33:37.701Z,6.62
2023-03-15T07:36:11.236Z,6.55
2023-03-15T07:38:42.017Z,6.98
2023-03-15T07:41:13.881Z,7.03
2023-03-15T07:43:56.920Z,6.76
2023-03-15T07:46:30.473Z,6.84
2023-03-15T07:49:05.837Z,7.18
2023-03-15T07:51:42.314Z,6.99
2023-03-15T07:54:14.604Z,7.06
2023-03-15T07:56:44.077Z,6.89
2023-03-15T07:59:20.763Z,6.88
2023-03-15T08:02:02.854Z,7.07
2023-03-15T08:04:33.437Z,7.22
2023-03-15T08:07:04.759Z,6.99
2023-03-15T08:09:34.709Z,7.12
2023-03-15T08:12:04.740Z,7.04
2023-03-15T08:14:35.794Z,6.94
2023-03-15T08:17:05.496Z,7.03
2023-03-15T08:19:37.202Z,7.32
2023-03-15T08:22:06.628Z,7.32
2023-03-15T08:24:45.540Z,7.36
2023-03-15T08:27:16.308Z,7.64
2023-03-15T08:29:47.235Z,7.18
2023-03-15T08:32:25.081Z,7.01
2023-03-15T08:34:58.419Z,7.08
2023-03-15T08:37:30.585Z,7.38
2023-03-15T08:40:09.565Z,7.40
2023-03-15T08:42:40.808Z,7.21
2023-03-15T08:45:19.063Z,7.27
2023-03-15T08:47:51.949Z,7.54
2023-03-15T08:50:23.573Z,7.36
2023-03-15T08:52:52.353Z,7.23
2023-03-15T08:55:22.408Z,7.39
2023-03-15T08:57:53.497Z,7.36
2023-03-15T09:00:28.469Z,7.32
2023-03-15T09:03:11.921Z,7.57
2023-03-15T09:05:43.909Z,7.61
2023-03-15T09:08:14.664Z,7.65
2023-03-15T09:10:48.455Z,7.66
2023-03-15T09:13:22.204Z,7.50
2023-03-15T09:15:52.200Z,7.70
2023-03-15T09:18:34.059Z,8.17
2023-03-15T09:21:03.665Z,7.94
2023-03-15T09:23:32.005Z,8.16
2023-03-15T09:26:02.031Z,7.62
2023-03-15T09:28:34.453Z,7.86
2023-03-15T09:31:10.020Z,8.00
2023-03-15T09:33:49.167Z,8.14
2023-03-15T09:36:20.751Z,8.32
2023-03-15T09:38:49.776Z,8.47
2023-03-15T09:41:40.754Z,8.14
2023-03-15T09:44:42.991Z,7.94
2023-03-15T09:47:39.727Z,8.21
2023-03-15T09:50:18.055Z,7.97
2023-03-15T09:52:50.459Z,7.94
2023-03-15T09:55:22.984Z,8.04
2023-03-15T09:57:58.200Z,8.16
2023-03-15T10:00:33.927Z,8.04
2023-03-15T10:03:07.568Z,8.17
2023-03-15T10:05:50.344Z,7.96
2023-03-15T10:08:25.142Z,8.07
2023-03-15T10:11:00.799Z,8.31
2023-03-15T10:13:56.923Z,8.23
2023-03-15T10:16:30.660Z,8.40
2023-03-15T10:19:08.261Z,8.47
2023-03-15T10:21:51.651Z,8.35
2023-03-15T10:24:29.150Z,8.19
2023-03-15T10:27:21.692Z,8.24
2023-03-15T10:29:51.660Z,8.08
2023-03-15T10:32:31.769Z,8.36
2023-03-15T10:35:03.310Z,8.65
2023-03-15T10:37:37.871Z,8.27
2023-03-15T10:40:16.738Z,8.31
2023-03-15T10:42:47.541Z,8.67
2023-03-15T10:45:24.139Z,8.23
2023-03-15T10:48:00.792Z,8.47
2023-03-15T10:50:34.765Z,8.69
2023-03-15T10:53:11.628Z,8.90
2023-03-15T10:55:54.637Z,9.09
2023-03-15T10:58:28.629Z,9.34
2023-03-15T11:01:03.210Z,9.12
2023-03-15T11:03:32.592Z,9.14
2023-03-15T11:06:05.056Z,9.03
2023-03-15T11:08:46.509Z,8.64
2023-03-15T11:11:23.879Z,9.18
2023-03-15T11:14:03.922Z,9.19
2023-03-15T11:16:36.662Z,9.14
2023-03-15T11:19:18.250Z,9.11
2023-03-15T11:21:53.957Z,8.99
2023-03-15T11:24:34.686Z,9.29
2023-03-15T11:27:07.600Z,9.07
2023-03-15T11:29:38.250Z,8.70
2023-03-15T11:32:26.062Z,9.15
2023-03-15T11:35:01.678Z,8.90
2023-03-15T11:37:49.138Z,8.91
2023-03-15T11:40:25.586Z,8.87
2023-03-15T11:42:59.746Z,9.17
2023-03-15T11:45:35.713Z,9.33
2023-03-15T11:48:28.120Z,9.39
2023-03-15T11:51:01.372Z,9.36
2023-03-15T11:53:46.367Z,8.92
2023-03-15T11:56:52.799Z,9.00
2023-03-15T11:59:28.755Z,9.02
2023-03-15T12:01:59.763Z,9.26
2023-03-15T12:04:50.305Z,9.25
2023-03-15T12:07:49.885Z,9.47
2023-03-15T12:10:46.832Z,9.32
2023-03-15T12:13:36.314Z,9.58
2023-03-15T12:16:11.061Z,9.72
2023-03-15T12:18:44.825Z,9.48
2023-03-15T12:21:22.563Z,9.45
2023-03-15T12:24:00.214Z,9.19
2023-03-15T12:26:41.186Z,9.06
2023-03-15T12:29:26.666Z,9.65
2023-03-15T12:31:59.619Z,9.68
2023-03-15T12:34:32.820Z,9.79
2023-03-15T12:37:05.964Z,9.93
2023-03-15T12:39:47.161Z,9.81
2023-03-15T12:42:49.792Z,10.05
2023-03-15T12:45:39.713Z,9.93
2023-03-15T12:48:40.936Z,9.96
2023-03-15T12:51:46.244Z,9.66
2023-03-15T12:54:24.457Z,9.70
2023-03-15T12:56:57.992Z,10.00
2023-03-15T12:59:35.057Z,10.23
2023-03-15T13:02:07.386Z,10.43
2023-03-15T13:04:38.475Z,10.49
2023-03-15T13:07:45.613Z,10.92
2023-03-15T13:10:36.171Z,10.28
2023-03-15T13:13:41.178Z,10.68
2023-03-15T13:16:19.934Z,10.81
2023-03-15T13:18:54.633Z,10.96
2023-03-15T13:21:28.918Z,11.44
2023-03-15T13:24:00.627Z,10.95
2023-03-15T13:26:48.595Z,10.15
2023-03-15T13:29:20.141Z,10.22
2023-03-15T13:32:04.171Z,10.14
2023-03-15T13:34:34.455Z,10.19
2023-03-15T13:37:08.498Z,10.03
2023-03-15T13:39:57.425Z,10.09
2023-03-15T13:42:42.917Z,10.46
2023-03-15T13:45:20.283Z,10.46
2023-03-15T13:47:57.326Z,10.34
2023-03-15T13:50:28.994Z,10.47
2023-03-15T13:52:59.981Z,10.41
2023-03-15T13:55:37.974Z,10.46
2023-03-15T13:58:09.578Z,10.80
2023-03-15T14:00:47.251Z,10.53
2023-03-15T14:03:24.342Z,10.35
2023-03-15T14:06:04.964Z,10.14
2023-03-15T14:08:38.050Z,10.17
2023-03-15T14:11:16.784Z,10.46
2023-03-15T14:14:02.381Z,10.46
2023-03-15T14:16:42.812Z,10.43
2023-03-15T14:19:28.000Z,10.27
2023-03-15T14:22:06.605Z,10.53
2023-03-15T14:24:40.386Z,10.29
2023-03-15T14:27:25.950Z,10.62
2023-03-15T14:30:00.865Z,10.71
2023-03-15T14:32:41.616Z,10.85
2023-03-15T14:35:29.551Z,10.86
2023-03-15T14:38:09.122Z,10.88
2023-03-15T14:40:46.830Z,11.00
2023-03-15T14:43:21.002Z,11.26
2023-03-15T14:45:51.356Z,11.30
2023-03-15T14:48:28.091Z,11.00
2023-03-15T14:50:57.935Z,11.00
2023-03-15T14:53:30.821Z,11.31
2023-03-15T14:56:01.276Z,11.12
2023-03-15T14:58:33.459Z,10.70
2023-03-15T15:01:08.062Z,10.76
2023-03-15T15:03:46.883Z,10.88
2023-03-15T15:06:21.942Z,10.89
2023-03-15T15:08:56.744Z,10.86
2023-03-15T15:11:35.228Z,10.74
2023-03-15T15:14:12.115Z,10.60
2023-03-15T15:16:42.367Z,10.32
2023-03-15T15:19:19.459Z,10.37
2023-03-15T15:22:12.943Z,10.32
2023-03-15T15:24:42.557Z,10.57
2023-03-15T15:27:11.765Z,10.56
2023-03-15T15:29:42.610Z,10.04
2023-03-15T15:32:14.046Z,9.99
2023-03-15T15:34:42.640Z,10.25
2023-03-15T15:37:13.196Z,10.03
2023-03-15T15:39:48.652Z,9.90
2023-03-15T15:42:20.024Z,9.74
2023-03-15T15:44:52.023Z,10.07
2023-03-15T15:47:30.304Z,10.39
2023-03-15T15:50:01.110Z,10.43
2023-03-15T15:52:30.807Z,10.16
2023-03-15T15:55:02.461Z,9.97
2023-03-15T15:57:32.418Z,9.81
2023-03-15T16:00:11.170Z,9.74
2023-03-15T16:03:12.929Z,9.69
2023-03-15T16:05:42.589Z,9.61
2023-03-15T16:08:24.002Z,9.61
2023-03-15T16:11:00.385Z,9.68
2023-03-15T16:13:58.086Z,9.48
2023-03-15T16:16:33.402Z,9.63
2023-03-15T16:19:07.927Z,9.55
2023-03-15T16:21:41.722Z,9.54
2023-03-15T16:24:19.987Z,9.57
2023-03-15T16:26:53.009Z,9.82
2023-03-15T16:29:47.122Z,9.50
2023-03-15T16:32:36.738Z,9.51
2023-03-15T16:35:30.959Z,9.52
2023-03-15T16:38:28.032Z,9.60
2023-03-15T16:41:00.502Z,9.21
2023-03-15T16:43:34.353Z,9.12
2023-03-15T16:46:30.456Z,9.17
2023-03-15T16:49:15.830Z,9.25
2023-03-15T16:51:49.727Z,9.16
2023-03-15T16:54:40.230Z,9.08
2023-03-15T16:57:31.807Z,8.97
2023-03-15T17:00:22.864Z,8.91
2023-03-15T17:03:02.637Z,9.18
2023-03-15T17:05:57.323Z,8.93
2023-03-15T17:08:45.031Z,8.99
2023-03-15T17:11:18.651Z,9.01
2023-03-15T17:13:54.568Z,8.88
2023-03-15T17:16:40.864Z,8.78
2023-03-15T17:19:21.406Z,8.66
2023-03-15T17:22:21.199Z,8.77
2023-03-15T17:24:54.233Z,8.68
2023-03-15T17:27:32.978Z,8.46
2023-03-15T17:30:13.722Z,8.14
2023-03-15T17:32:55.906Z,7.93
2023-03-15T17:35:39.396Z,7.64
2023-03-15T17:38:30.446Z,7.67
2023-03-15T17:41:09.220Z,7.85
2023-03-15T17:43:50.400Z,7.56
2023-03-15T17:46:34.939Z,7.27
2023-03-15T17:49:18.397Z,7.27
2023-03-15T17:51:52.924Z,7.30
2023-03-15T17:54:39.183Z,7.24
2023-03-15T17:57:12.093Z,7.28
2023-03-15T17:59:55.643Z,7.18
2023-03-15T18:02:28.560Z,7.49
2023-03-15T18:05:00.331Z,7.34
2023-03-15T18:07:43.529Z,7.45
2023-03-15T18:10:41.088Z,7.38
2023-03-15T18:13:22.499Z,7.38
2023-03-15T18:15:52.858Z,7.26
2023-03-15T18:18:27.266Z,7.38
2023-03-15T18:21:06.253Z,7.28
2023-03-15T18:23:44.011Z,7.08
2023-03-15T18:26:24.958Z,7.27
2023-03-15T18:28:58.277Z,7.18
2023-03-15T18:31:39.417Z,7.38
2023-03-15T18:34:26.056Z,7.36
2023-03-15T18:37:06.580Z,7.64
2023-03-15T18:39:40.220Z,7.58
2023-03-15T18:42:43.120Z,7.74
2023-03-15T18:45:37.906Z,7.46
2023-03-15T18:48:10.747Z,7.50
2023-03-15T18:51:04.919Z,7.46
2023-03-15T18:53:37.556Z,7.45
2023-03-15T18:56:33.449Z,7.56
2023-03-15T18:59:27.827Z,7.69
2023-03-15T19:01:58.580Z,7.55
2023-03-15T19:04:37.106Z,7.62
2023-03-15T19:07:25.309Z,7.70
2023-03-15T19:10:12.638Z,7.58
2023-03-15T19:13:11.142Z,7.55
2023-03-15T19:15:58.281Z,7.61
2023-03-15T19:18:44.578Z,7.54
2023-03-15T19:21:27.225Z,7.72
2023-03-15T19:24:14.912Z,7.49
2023-03-15T19:26:53.244Z,7.50
2023-03-15T19:29:57.851Z,7.57
2023-03-15T19:32:45.661Z,7.48
2023-03-15T19:35:33.591Z,7.48
2023-03-15T19:38:11.791Z,7.57
2023-03-15T19:40:55.915Z,7.51
2023-03-15T19:43:28.359Z,7.46
2023-03-15T19:46:22.284Z,7.57
2023-03-15T19:49:09.476Z,7.41
2023-03-15T19:51:43.071Z,7.25
2023-03-15T19:54:23.241Z,7.29
2023-03-15T19:57:06.511Z,7.22
2023-03-15T19:59:42.356Z,7.31
2023-03-15T20:02:25.562Z,7.35
2023-03-15T20:05:08.744Z,7.32
2023-03-15T20:08:01.966Z,7.09
2023-03-15T20:10:54.423Z,7.27
2023-03-15T20:13:31.334Z,7.14
2023-03-15T20:16:29.403Z,7.16
2023-03-15T20:19:08.896Z,7.09
2023-03-15T20:22:11.514Z,7.17
2023-03-15T20:24:51.822Z,6.94
2023-03-15T20:27:26.708Z,7.09
2023-03-15T20:30:06.830Z,7.20
2023-03-15T20:32:41.729Z,7.08
2023-03-15T20:35:22.226Z,6.77
2023-03-15T20:38:05.997Z,6.96
2023-03-15T20:40:41.397Z,7.04
2023-03-15T20:43:20.632Z,6.94
2023-03-15T20:46:01.090Z,7.09
2023-03-15T20:48:34.269Z,6.95
2023-03-15T20:51:12.924Z,6.88
2023-03-15T20:54:04.254Z,7.06
2023-03-15T20:56:47.204Z,6.72
2023-03-15T20:59:29.325Z,7.26
2023-03-15T21:02:15.884Z,6.83
2023-03-15T21:04:48.803Z,6.77
2023-03-15T21:07:23.459Z,6.76
2023-03-15T21:10:21.212Z,6.63
2023-03-15T21:13:03.651Z,6.55
2023-03-15T21:15:52.158Z,6.66
2023-03-15T21:18:32.519Z,6.58
2023-03-15T21:21:04.991Z,6.68
2023-03-15T21:23:47.592Z,6.40
2023-03-15T21:26:37.562Z,6.49
2023-03-15T21:29:07.512Z,6.06
2023-03-15T21:32:01.192Z,6.54
2023-03-15T21:34:36.747Z,6.40
2023-03-15T21:37:09.480Z,6.69
2023-03-15T21:39:46.623Z,6.42
2023-03-15T21:42:43.459Z,6.55
2023-03-15T21:45:16.938Z,6.43
2023-03-15T21:47:55.532Z,6.16
2023-03-15T21:50:32.432Z,6.40
2023-03-15T21:53:05.213Z,6.11
2023-03-15T21:55:40.877Z,6.23
2023-03-15T21:58:16.233Z,6.13
2023-03-15T22:00:57.738Z,6.25
2023-03-15T22:03:30.287Z,5.99
2023-03-15T22:06:00.766Z,6.05
2023-03-15T22:08:30.086Z,5.94
2023-03-15T22:11:08.600Z,5.92
2023-03-15T22:13:38.515Z,5.97
2023-03-15T22:16:16.642Z,5.85
2023-03-15T22:18:57.357Z,6.06
2023-03-15T22:21:36.339Z,5.97
2023-03-15T22:24:07.584Z,6.02
2023-03-15T22:26:36.260Z,5.72
2023-03-15T22:29:12.741Z,5.88
2023-03-15T22:31:56.249Z,5.95
2023-03-15T22:34:27.637Z,5.89
2023-03-15T22:36:57.030Z,5.84
2023-03-15T22:39:29.367Z,5.94
2023-03-15T22:42:03.308Z,5.92
2023-03-15T22:44:35.804Z,5.70
2023-03-15T22:47:05.256Z,5.90
2023-03-15T22:49:34.634Z,5.92
2023-03-15T22:52:04.225Z,5.62
2023-03-15T22:54:43.596Z,5.90
2023-03-15T22:57:25.537Z,5.89
2023-03-15T23:00:14.900Z,5.83
2023-03-15T23:02:45.423Z,5.60
2023-03-15T23:05:18.973Z,5.77
2023-03-15T23:07:51.848Z,5.67
2023-03-15T23:10:24.391Z,5.64
2023-03-15T23:12:53.908Z,5.46
2023-03-15T23:15:26.078Z,5.51
2023-03-15T23:17:55.776Z,5.47
2023-03-15T23:20:26.419Z,5.72
2023-03-15T23:22:59.483Z,5.42
2023-03-15T23:25:29.335Z,5.27
2023-03-15T23:27:58.861Z,5.22
2023-03-15T23:30:35.933Z,5.18
2023-03-15T23:33:15.719Z,5.34
2023-03-15T23:35:58.299Z,5.05
2023-03-15T23:38:28.062Z,5.09
2023-03-15T23:40:59.891Z,5.05
2023-03-15T23:43:37.390Z,5.20
2023-03-15T23:46:14.869Z,4.94
2023-03-15T23:49:00.118Z,4.96
2023-03-15T23:51:29.102Z,5.07
2023-03-15T23:53:58.483Z,4.92
2023-03-15T23:56:28.766Z,4.88
2023-03-15T23:59:12.245Z,5.01
